Time;durP1;ratioP1;P1;durP2;ratioP2;P2;SDS_P1;SDS_P2;PMS_P1;PMS_P2;Temp;Humidity;BMP_temperature;BMP_pressure;BME280_temperature;BME280_humidity;BME280_pressure;Samples;Min_cycle;Max_cycle;Signal;HPM_P1;HPM_P2
2023/02/02 00:00:50;;;;;;;22.73;4.85;;;;;;;6.72;100.00;102000.53;5083904;28;20035;-75
2023/02/02 00:03:16;;;;;;;25.13;4.70;;;;;;;6.72;100.00;101997.91;5083651;28;20033;-75
2023/02/02 00:05:50;;;;;;;23.73;4.88;;;;;;;6.67;100.00;101999.44;5084702;28;20440;-77
2023/02/02 00:08:16;;;;;;;24.50;4.95;;;;;;;6.62;100.00;101987.00;5083669;28;20039;-76
2023/02/02 00:10:42;;;;;;;25.42;5.00;;;;;;;6.62;100.00;101992.28;5084781;28;20588;-75
2023/02/02 00:13:08;;;;;;;26.88;4.85;;;;;;;6.60;100.00;101987.81;5082626;28;20040;-75
2023/02/02 00:15:33;;;;;;;24.75;5.00;;;;;;;6.61;100.00;101989.59;5085537;28;20373;-75
2023/02/02 00:17:59;;;;;;;23.30;5.00;;;;;;;6.60;100.00;101982.56;5082220;28;20029;-77
2023/02/02 00:20:24;;;;;;;23.38;4.55;;;;;;;6.69;100.00;101980.28;5084587;28;20220;-77
2023/02/02 00:22:50;;;;;;;22.45;4.40;;;;;;;6.64;100.00;101992.34;5083340;28;20036;-78
2023/02/02 00:25:15;;;;;;;24.42;5.20;;;;;;;6.79;100.00;101984.16;5083371;28;20028;-78
2023/02/02 00:27:40;;;;;;;28.33;5.28;;;;;;;6.73;100.00;101984.81;5084499;28;20517;-78
2023/02/02 00:30:07;;;;;;;27.13;4.85;;;;;;;6.78;100.00;101983.25;5082136;28;20032;-75
2023/02/02 00:32:32;;;;;;;24.23;4.63;;;;;;;6.86;100.00;101995.78;5085234;28;20424;-75
2023/02/02 00:34:58;;;;;;;25.27;4.82;;;;;;;6.87;100.00;102002.84;5081981;28;20070;-78
2023/02/02 00:37:24;;;;;;;24.52;4.75;;;;;;;6.84;100.00;101993.09;5084601;28;20153;-78
2023/02/02 00:39:50;;;;;;;22.73;4.57;;;;;;;6.83;100.00;101993.03;5083116;28;20530;-76
2023/02/02 00:42:16;;;;;;;25.30;4.60;;;;;;;6.83;100.00;102008.81;5082953;28;20471;-75
2023/02/02 00:47:25;;;;;;;24.25;4.90;;;;;;;6.94;100.00;102000.50;5084835;28;20536;-76
2023/02/02 00:49:50;;;;;;;21.67;4.47;;;;;;;6.88;100.00;101999.38;5082843;28;20115;-77
2023/02/02 00:52:16;;;;;;;23.60;4.50;;;;;;;6.92;100.00;102007.44;5082933;28;20036;-75
2023/02/02 00:54:41;;;;;;;25.27;4.72;;;;;;;6.94;100.00;102007.50;5084240;28;20036;-75
2023/02/02 00:57:09;;;;;;;23.45;4.30;;;;;;;6.93;100.00;102003.06;5081579;28;20063;-76
2023/02/02 00:59:34;;;;;;;23.38;4.85;;;;;;;6.99;100.00;102005.94;5084896;28;20028;-75
2023/02/02 01:02:00;;;;;;;24.33;4.97;;;;;;;6.98;100.00;102006.78;5081514;28;20041;-77
2023/02/02 01:04:26;;;;;;;22.70;4.55;;;;;;;6.93;100.00;102009.25;5084085;28;20046;-75
2023/02/02 01:06:51;;;;;;;24.13;4.50;;;;;;;6.99;100.00;102005.94;5082744;28;20115;-78
2023/02/02 01:09:17;;;;;;;26.35;4.82;;;;;;;6.93;100.00;102005.69;5082765;28;20077;-75
2023/02/02 01:11:42;;;;;;;24.20;4.45;;;;;;;6.94;100.00;102005.75;5083717;28;20028;-78
2023/02/02 01:14:07;;;;;;;23.58;4.47;;;;;;;6.88;100.00;101992.38;5081262;28;20040;-75
2023/02/02 01:16:33;;;;;;;22.15;4.43;;;;;;;7.04;100.00;102000.84;5084519;28;20533;-78
2023/02/02 01:18:58;;;;;;;26.05;5.03;;;;;;;6.95;100.00;102004.91;5081363;28;20116;-82
2023/02/02 01:21:24;;;;;;;21.40;4.57;;;;;;;6.89;100.00;102007.31;5083654;28;20494;-80
2023/02/02 01:23:49;;;;;;;24.65;4.60;;;;;;;6.88;100.00;102000.28;5082609;28;20090;-82
2023/02/02 01:26:15;;;;;;;23.67;4.80;;;;;;;6.90;100.00;101997.69;5082131;28;20060;-81
2023/02/02 01:28:40;;;;;;;26.15;4.82;;;;;;;6.84;100.00;101977.31;5083966;28;20035;-81
2023/02/02 01:31:15;;;;;;;24.50;4.72;;;;;;;6.87;100.00;102001.09;5080994;28;20028;-76
2023/02/02 01:33:42;;;;;;;23.45;4.30;;;;;;;6.90;100.00;101993.34;5083695;28;20019;-76
2023/02/02 01:36:11;;;;;;;24.13;5.10;;;;;;;6.92;100.00;101996.94;5081496;28;20472;-82
2023/02/02 01:38:36;;;;;;;23.88;4.38;;;;;;;6.95;100.00;102004.91;5084288;28;20031;-76
2023/02/02 01:41:06;;;;;;;25.13;5.03;;;;;;;6.94;100.00;102004.88;5080761;28;20021;-82
2023/02/02 01:43:40;;;;;;;25.35;4.90;;;;;;;6.94;100.00;102013.63;5081113;28;20025;-82
2023/02/02 01:46:10;;;;;;;26.98;5.28;;;;;;;6.90;100.00;102009.13;5081043;28;20042;-77
2023/02/02 01:48:35;;;;;;;25.27;4.90;;;;;;;6.89;100.00;102002.06;5080884;28;20029;-81
2023/02/02 01:51:05;;;;;;;22.92;4.55;;;;;;;6.96;100.00;102003.19;5080731;28;20035;-81
2023/02/02 01:53:32;;;;;;;22.63;4.38;;;;;;;6.89;100.00;102007.31;5080923;28;20472;-75
2023/02/02 01:55:58;;;;;;;23.55;4.82;;;;;;;6.89;100.00;102002.06;5083716;28;20435;-75
2023/02/02 01:58:34;;;;;;;25.10;4.82;;;;;;;6.98;100.00;102007.66;5081626;28;20035;-79
2023/02/02 02:00:59;;;;;;;24.77;4.80;;;;;;;6.92;100.00;102004.81;5083928;28;20031;-76
2023/02/02 02:03:28;;;;;;;23.33;4.70;;;;;;;6.93;100.00;101993.47;5081570;28;20089;-77
2023/02/02 02:05:59;;;;;;;24.48;4.32;;;;;;;6.88;100.00;102012.53;5083053;28;20020;-75
2023/02/02 02:08:36;;;;;;;23.58;4.63;;;;;;;6.90;100.00;102008.22;5081537;28;20111;-77
2023/02/02 02:11:02;;;;;;;24.42;4.78;;;;;;;6.94;100.00;101997.88;5080969;28;20437;-75
2023/02/02 02:16:35;;;;;;;23.88;4.50;;;;;;;6.93;100.00;102003.97;5082790;28;20039;-77
2023/02/02 02:19:26;;;;;;;25.75;4.68;;;;;;;6.91;100.00;101992.50;5081779;28;20371;-77
2023/02/02 02:28:04;;;;;;;24.27;5.20;;;;;;;6.78;100.00;102004.28;5086718;28;20093;-77
2023/02/02 02:31:00;;;;;;;23.73;4.60;;;;;;;6.83;100.00;102000.94;5084966;28;20356;-77
2023/02/02 02:33:43;;;;;;;23.85;5.07;;;;;;;6.86;100.00;101998.41;5087090;28;20418;-77
2023/02/02 02:36:20;;;;;;;25.50;4.55;;;;;;;6.91;100.00;102005.63;5084828;28;20116;-77
2023/02/02 02:39:04;;;;;;;22.33;5.22;;;;;;;6.76;100.00;102016.47;5086915;28;20055;-78
2023/02/02 02:41:36;;;;;;;26.23;4.90;;;;;;;6.82;100.00;101988.66;5087698;28;20373;-77
2023/02/02 02:44:09;;;;;;;24.98;4.70;;;;;;;6.81;100.00;102008.75;5084637;28;20025;-77
2023/02/02 02:46:36;;;;;;;24.52;4.75;;;;;;;6.78;100.00;102011.28;5084131;28;20051;-77
2023/02/02 02:49:02;;;;;;;21.48;4.32;;;;;;;6.69;100.00;102017.06;5084384;28;20126;-77
2023/02/02 02:51:44;;;;;;;26.92;4.90;;;;;;;6.67;100.00;102017.84;5087375;28;20024;-77
2023/02/02 02:54:13;;;;;;;25.17;5.25;;;;;;;6.69;100.00;102013.56;5084752;28;20435;-77
2023/02/02 02:57:20;;;;;;;25.08;4.80;;;;;;;6.83;100.00;102015.00;5087485;28;20031;-77
2023/02/02 03:00:43;;;;;;;23.73;4.88;;;;;;;6.68;100.00;102027.53;5085221;28;20490;-76
2023/02/02 03:03:32;;;;;;;24.88;4.60;;;;;;;6.70;100.00;102024.13;5045373;28;20516;-78
2023/02/02 03:06:16;;;;;;;26.45;5.00;;;;;;;6.75;100.00;102008.53;5042740;28;20124;-78
2023/02/02 03:08:50;;;;;;;24.38;4.70;;;;;;;6.70;100.00;102010.06;5075877;28;20471;-77
2023/02/02 03:11:16;;;;;;;24.27;4.63;;;;;;;6.61;100.00;102010.59;5085252;28;20078;-77
2023/02/02 03:13:42;;;;;;;26.02;4.90;;;;;;;6.59;100.00;102010.53;5086681;28;20440;-77
2023/02/02 03:16:08;;;;;;;27.00;5.10;;;;;;;6.63;100.00;101999.31;5083637;28;20033;-77
2023/02/02 03:18:34;;;;;;;27.33;5.43;;;;;;;6.70;100.00;102008.34;5087289;28;20051;-77
2023/02/02 03:20:59;;;;;;;23.63;5.07;;;;;;;6.61;100.00;102010.59;5084064;28;20442;-77
2023/02/02 03:23:26;;;;;;;24.88;5.25;;;;;;;6.63;100.00;102009.84;5084947;28;20036;-78
2023/02/02 03:25:52;;;;;;;25.75;5.15;;;;;;;6.53;100.00;102015.56;5085228;28;20421;-77
2023/02/02 03:28:18;;;;;;;24.73;4.72;;;;;;;6.56;100.00;102009.53;5084787;28;20429;-77
2023/02/02 03:30:45;;;;;;;24.10;4.60;;;;;;;6.53;100.00;102006.81;5085594;28;20024;-78
2023/02/02 03:33:12;;;;;;;25.45;5.28;;;;;;;6.63;100.00;101998.44;5084124;28;20062;-77
2023/02/02 03:35:38;;;;;;;24.35;4.63;;;;;;;6.60;100.00;102000.97;5087232;28;20028;-78
2023/02/02 03:38:03;;;;;;;23.23;5.25;;;;;;;6.50;100.00;101991.81;5083260;28;20027;-77
2023/02/02 03:40:29;;;;;;;24.52;5.28;;;;;;;6.45;100.00;101993.34;5086620;28;20170;-77
2023/02/02 03:42:55;;;;;;;26.15;5.57;;;;;;;6.42;100.00;102003.72;5084057;28;20059;-78
2023/02/02 03:45:20;;;;;;;27.27;4.95;;;;;;;6.44;100.00;102004.72;5084771;28;20037;-78
2023/02/02 03:47:46;;;;;;;26.08;5.43;;;;;;;6.52;100.00;102008.50;5084999;28;20020;-81
2023/02/02 03:50:12;;;;;;;24.50;4.85;;;;;;;6.57;100.00;102016.59;5083491;28;20039;-81
2023/02/02 03:52:37;;;;;;;22.30;4.93;;;;;;;6.57;100.00;102019.22;5086605;28;20157;-82
2023/02/02 03:55:04;;;;;;;24.15;5.32;;;;;;;6.59;100.00;102030.69;5082824;28;20439;-81
2023/02/02 03:57:29;;;;;;;25.85;5.15;;;;;;;6.63;100.00;102036.13;5085630;28;20036;-83
2023/02/02 03:59:55;;;;;;;23.92;5.00;;;;;;;6.62;100.00;102039.56;5083799;28;20374;-82
2023/02/02 04:02:20;;;;;;;24.25;5.18;;;;;;;6.55;100.00;102042.81;5084462;28;20128;-76
2023/02/02 04:04:45;;;;;;;25.80;5.10;;;;;;;6.62;100.00;102036.94;5084776;28;20062;-76
2023/02/02 04:07:11;;;;;;;23.02;4.72;;;;;;;6.63;100.00;102035.22;5083179;28;20036;-82
2023/02/02 04:09:36;;;;;;;26.58;5.15;;;;;;;6.66;100.00;102023.94;5085843;28;20024;-82
2023/02/02 04:12:01;;;;;;;24.50;5.30;;;;;;;6.60;100.00;102032.50;5082462;28;20493;-82
2023/02/02 04:14:27;;;;;;;23.02;4.38;;;;;;;6.66;100.00;102014.31;5084888;28;20436;-83
2023/02/02 04:16:52;;;;;;;25.92;4.68;;;;;;;6.71;100.00;102014.50;5083811;28;20058;-81
2023/02/02 04:19:17;;;;;;;24.20;4.95;;;;;;;6.67;100.00;102033.59;5083863;28;20017;-82
2023/02/02 04:21:43;;;;;;;23.23;4.50;;;;;;;6.61;100.00;102021.13;5084632;28;20478;-81
2023/02/02 04:24:11;;;;;;;25.75;5.18;;;;;;;6.67;100.00;102028.34;5080922;28;20032;-80
2023/02/02 04:26:36;;;;;;;24.88;4.50;;;;;;;6.57;100.00;102024.50;5085471;28;20047;-81
2023/02/02 04:29:02;;;;;;;26.20;5.38;;;;;;;6.60;100.00;102035.13;5082088;28;20520;-81
2023/02/02 04:31:28;;;;;;;28.15;4.80;;;;;;;6.59;100.00;102028.94;5084719;28;20067;-82
2023/02/02 04:33:54;;;;;;;26.75;5.03;;;;;;;6.57;100.00;102035.00;5083735;28;20393;-77
2023/02/02 04:36:20;;;;;;;23.85;4.88;;;;;;;6.56;100.00;102047.22;5084071;28;20033;-77
2023/02/02 04:38:49;;;;;;;22.10;4.57;;;;;;;6.59;100.00;102052.59;5084084;28;20038;-76
2023/02/02 04:41:15;;;;;;;24.15;4.80;;;;;;;6.62;100.00;102038.69;5083166;28;20086;-77
2023/02/02 04:43:40;;;;;;;24.00;4.65;;;;;;;6.63;100.00;102038.75;5085452;28;20470;-77
2023/02/02 04:46:06;;;;;;;25.92;5.00;;;;;;;6.58;100.00;102027.16;5082056;28;20029;-76
2023/02/02 04:48:31;;;;;;;27.77;5.22;;;;;;;6.57;100.00;102040.25;5085339;28;20031;-77
2023/02/02 04:51:01;;;;;;;24.67;4.80;;;;;;;6.58;100.00;102040.31;5082800;28;20023;-78
2023/02/02 04:53:27;;;;;;;22.98;4.70;;;;;;;6.58;100.00;102048.19;5083969;28;20391;-78
2023/02/02 04:55:53;;;;;;;23.23;4.47;;;;;;;6.53;100.00;102028.69;5083621;28;20031;-77
2023/02/02 04:58:18;;;;;;;25.80;4.75;;;;;;;6.54;100.00;102033.13;5083212;28;20025;-77
2023/02/02 05:00:44;;;;;;;25.58;4.80;;;;;;;6.56;100.00;102031.44;5084583;28;20086;-77
2023/02/02 05:03:09;;;;;;;23.23;4.22;;;;;;;6.49;100.00;102026.78;5082171;28;20033;-76
2023/02/02 05:05:35;;;;;;;24.50;4.45;;;;;;;6.49;100.00;102031.16;5085349;28;20028;-76
2023/02/02 05:08:00;;;;;;;22.88;4.60;;;;;;;6.57;100.00;102033.25;5081641;28;20024;-76
2023/02/02 05:10:25;;;;;;;21.77;4.30;;;;;;;6.58;100.00;102035.06;5084367;28;20035;-77
2023/02/02 05:12:52;;;;;;;22.23;4.40;;;;;;;6.59;100.00;102031.56;5083354;28;20031;-77
2023/02/02 05:15:17;;;;;;;21.38;4.07;;;;;;;6.58;100.00;102042.03;5083214;28;20426;-77
2023/02/02 05:17:42;;;;;;;25.00;4.95;;;;;;;6.57;100.00;102054.28;5084384;28;20076;-77
2023/02/02 05:20:09;;;;;;;22.15;4.70;;;;;;;6.67;100.00;102058.16;5081128;28;20475;-77
2023/02/02 05:22:34;;;;;;;24.38;4.85;;;;;;;6.63;100.00;102067.66;5081825;28;20040;-77
2023/02/02 05:24:59;;;;;;;25.13;4.70;;;;;;;6.59;100.00;102063.09;5084746;28;20107;-77
2023/02/02 05:27:25;;;;;;;23.50;4.68;;;;;;;6.62;100.00;102057.97;5082301;28;20044;-76
2023/02/02 05:29:50;;;;;;;24.23;4.82;;;;;;;6.62;100.00;102054.44;5083579;28;20040;-77
2023/02/02 05:32:15;;;;;;;25.15;5.00;;;;;;;6.67;100.00;102052.00;5083498;28;20039;-83
2023/02/02 05:34:41;;;;;;;23.23;4.68;;;;;;;6.68;100.00;102064.31;5080016;28;20024;-81
2023/02/02 05:37:06;;;;;;;22.38;4.35;;;;;;;6.75;100.00;102051.47;5084848;28;20433;-80
2023/02/02 05:39:32;;;;;;;24.63;4.30;;;;;;;6.69;100.00;102053.84;5081393;28;20052;-80
2023/02/02 05:41:57;;;;;;;22.88;4.60;;;;;;;6.78;100.00;102062.09;5083546;28;20029;-82
2023/02/02 05:44:22;;;;;;;24.33;4.72;;;;;;;6.72;100.00;102059.22;5082883;28;20355;-81
2023/02/02 05:46:48;;;;;;;21.77;4.30;;;;;;;6.69;100.00;102052.97;5082181;28;20032;-79
2023/02/02 05:49:13;;;;;;;22.38;4.60;;;;;;;6.65;100.00;102061.56;5084042;28;20078;-80
2023/02/02 05:51:45;;;;;;;22.75;4.65;;;;;;;6.66;100.00;102071.25;5081691;28;20037;-80
2023/02/02 05:54:11;;;;;;;25.00;4.65;;;;;;;6.77;100.00;102059.41;5083879;28;20051;-79
2023/02/02 05:56:36;;;;;;;24.02;5.15;;;;;;;6.66;100.00;102051.13;5080936;28;20146;-83
2023/02/02 05:59:06;;;;;;;22.50;5.10;;;;;;;6.70;100.00;102036.34;5084046;28;20074;-78
2023/02/02 06:01:32;;;;;;;23.70;4.55;;;;;;;6.76;100.00;102062.91;5083331;28;20082;-78
2023/02/02 06:03:57;;;;;;;26.35;5.18;;;;;;;6.75;100.00;102066.34;5087212;28;20418;-80
2023/02/02 06:06:22;;;;;;;24.23;5.30;;;;;;;6.70;100.00;102058.28;5086227;28;20036;-82
2023/02/02 06:08:48;;;;;;;25.17;4.70;;;;;;;6.70;100.00;102070.50;5085918;28;20031;-79
2023/02/02 06:11:15;;;;;;;22.40;4.38;;;;;;;6.73;100.00;102068.03;5087609;28;20048;-80
2023/02/02 06:13:41;;;;;;;23.40;4.50;;;;;;;6.72;100.00;102055.72;5084864;28;20033;-75
2023/02/02 06:16:07;;;;;;;25.00;4.90;;;;;;;6.77;100.00;102060.31;5087906;28;20105;-75
2023/02/02 06:18:33;;;;;;;22.75;4.50;;;;;;;6.75;100.00;102051.47;5084775;28;20036;-77
2023/02/02 06:21:00;;;;;;;25.73;5.05;;;;;;;6.80;100.00;102067.41;5087093;28;20035;-77
2023/02/02 06:23:26;;;;;;;24.73;5.22;;;;;;;6.74;100.00;102064.53;5085390;28;20027;-77
2023/02/02 06:25:51;;;;;;;24.02;4.72;;;;;;;6.65;100.00;102064.19;5086377;28;20021;-77
2023/02/02 06:28:16;;;;;;;23.95;4.63;;;;;;;6.61;100.00;102081.56;5086461;28;20047;-76
2023/02/02 06:30:42;;;;;;;25.42;5.20;;;;;;;6.75;100.00;102082.13;5084427;28;20066;-75
2023/02/02 06:33:07;;;;;;;23.05;4.80;;;;;;;6.71;100.00;102093.34;5088103;28;20032;-76
2023/02/02 06:35:33;;;;;;;20.77;4.50;;;;;;;6.65;100.00;102086.09;5085134;28;20467;-78
2023/02/02 06:37:59;;;;;;;26.67;5.18;;;;;;;6.69;100.00;102095.91;5093040;28;20359;-79
2023/02/02 06:40:27;;;;;;;26.33;5.00;;;;;;;6.61;100.00;102090.34;5094390;28;20032;-79
2023/02/02 06:42:57;;;;;;;25.27;4.80;;;;;;;6.55;100.00;102083.94;5094635;28;20084;-79
2023/02/02 06:45:23;;;;;;;25.40;4.90;;;;;;;6.54;100.00;102077.81;5095136;28;20371;-78
2023/02/02 06:47:48;;;;;;;24.30;4.68;;;;;;;6.52;100.00;102095.22;5094697;28;20027;-79
2023/02/02 06:50:14;;;;;;;23.98;4.68;;;;;;;6.47;100.00;102094.16;5094418;28;20036;-79
2023/02/02 06:52:39;;;;;;;22.48;4.68;;;;;;;6.55;100.00;102103.25;5094432;28;20024;-79
2023/02/02 06:55:05;;;;;;;24.13;4.53;;;;;;;6.59;100.00;102102.50;5094683;28;20368;-79
2023/02/02 06:57:30;;;;;;;26.67;5.25;;;;;;;6.44;100.00;102096.66;5094298;28;20036;-78
2023/02/02 06:59:55;;;;;;;24.70;5.18;;;;;;;6.43;100.00;102095.72;5094538;28;20154;-79
2023/02/02 07:02:22;;;;;;;25.17;4.60;;;;;;;6.44;100.00;102101.91;5095122;28;20124;-78
2023/02/02 07:04:47;;;;;;;23.73;4.97;;;;;;;6.55;100.00;102111.13;5094849;28;20605;-79
2023/02/02 07:07:13;;;;;;;22.95;4.20;;;;;;;6.48;100.00;102105.53;5094469;28;20074;-75
2023/02/02 07:09:38;;;;;;;24.08;5.22;;;;;;;6.51;100.00;102105.66;5095041;28;20111;-76
2023/02/02 07:12:04;;;;;;;22.08;4.40;;;;;;;6.45;100.00;102115.09;5091929;28;20024;-76
2023/02/02 07:14:29;;;;;;;23.83;5.07;;;;;;;6.47;100.00;102116.91;5090145;28;20066;-77
2023/02/02 07:16:54;;;;;;;23.83;4.70;;;;;;;6.51;100.00;102114.47;5094288;28;20478;-76
2023/02/02 07:19:20;;;;;;;25.10;5.03;;;;;;;6.44;100.00;102118.56;5094467;28;20463;-77
2023/02/02 07:21:45;;;;;;;25.80;5.07;;;;;;;6.44;100.00;102115.03;5094423;28;20035;-80
2023/02/02 07:24:10;;;;;;;23.15;4.88;;;;;;;6.43;100.00;102110.59;5093216;28;20429;-77
2023/02/02 07:26:36;;;;;;;27.23;5.30;;;;;;;6.41;100.00;102115.81;5094023;28;20027;-77
2023/02/02 07:29:03;;;;;;;24.17;4.95;;;;;;;6.44;100.00;102113.28;5094030;28;20056;-78
2023/02/02 07:31:29;;;;;;;25.42;4.63;;;;;;;6.37;100.00;102134.00;5087996;28;20382;-76
2023/02/02 07:33:54;;;;;;;21.52;4.53;;;;;;;6.26;100.00;102123.94;5088063;28;20103;-76
2023/02/02 07:36:22;;;;;;;25.38;4.78;;;;;;;6.26;100.00;102117.78;5093730;28;20032;-76
2023/02/02 07:38:50;;;;;;;25.08;4.90;;;;;;;6.22;100.00;102127.25;5093336;28;20024;-76
2023/02/02 07:41:16;;;;;;;21.83;5.00;;;;;;;6.21;100.00;102114.94;5091925;28;20042;-76
2023/02/02 07:43:41;;;;;;;23.20;4.85;;;;;;;6.22;100.00;102115.88;5092290;28;20102;-75
2023/02/02 07:46:09;;;;;;;23.63;4.90;;;;;;;6.13;100.00;102120.72;5093721;28;20352;-80
2023/02/02 07:48:35;;;;;;;25.75;4.82;;;;;;;6.16;100.00;102121.75;5091938;28;20020;-78
2023/02/02 07:51:06;;;;;;;23.13;4.43;;;;;;;6.20;100.00;102131.53;5093767;28;20024;-77
2023/02/02 07:53:33;;;;;;;22.80;4.40;;;;;;;6.21;100.00;102133.34;5093147;28;20039;-77
2023/02/02 07:56:27;;;;;;;24.00;4.90;;;;;;;6.32;100.00;102122.38;5093483;28;20032;-79
2023/02/02 07:58:54;;;;;;;24.65;4.78;;;;;;;6.38;100.00;102125.31;5087059;28;20133;-76
2023/02/02 08:01:21;;;;;;;22.20;4.68;;;;;;;6.41;100.00;102122.78;5093357;28;20027;-76
2023/02/02 08:03:48;;;;;;;25.17;4.88;;;;;;;6.46;100.00;102134.38;5093101;28;20032;-76
2023/02/02 08:06:18;;;;;;;22.55;4.60;;;;;;;6.44;100.00;102129.06;5089488;28;20036;-76
2023/02/02 08:08:44;;;;;;;24.52;5.03;;;;;;;6.44;100.00;102134.31;5092608;28;20031;-77
2023/02/02 08:11:12;;;;;;;22.55;4.78;;;;;;;6.45;100.00;102141.38;5093352;28;20031;-80
2023/02/02 08:13:39;;;;;;;23.98;4.85;;;;;;;6.43;100.00;102150.00;5093254;28;20062;-77
2023/02/02 08:16:05;;;;;;;24.17;4.40;;;;;;;6.41;100.00;102154.31;5093287;28;20445;-77
2023/02/02 08:18:32;;;;;;;22.88;4.75;;;;;;;6.52;100.00;102153.00;5090668;28;20471;-79
2023/02/02 08:20:59;;;;;;;21.85;4.82;;;;;;;6.52;100.00;102160.91;5093155;28;20107;-79
2023/02/02 08:23:25;;;;;;;22.80;4.32;;;;;;;6.50;100.00;102159.94;5092578;28;20024;-77
2023/02/02 08:25:50;;;;;;;22.77;4.65;;;;;;;6.56;100.00;102160.19;5092587;28;20024;-78
2023/02/02 08:28:17;;;;;;;22.60;4.90;;;;;;;6.57;100.00;102176.88;5092472;28;20044;-79
2023/02/02 08:30:42;;;;;;;22.20;4.88;;;;;;;6.56;100.00;102164.56;5092467;28;20049;-77
2023/02/02 08:33:07;;;;;;;22.67;4.90;;;;;;;6.56;100.00;102159.31;5092892;28;20032;-78
2023/02/02 08:35:33;;;;;;;23.02;5.03;;;;;;;6.55;100.00;102163.69;5092838;28;20056;-78
2023/02/02 08:38:01;;;;;;;22.92;4.63;;;;;;;6.56;100.00;102162.81;5092384;28;20418;-77
2023/02/02 08:40:27;;;;;;;25.25;4.88;;;;;;;6.62;100.00;102160.44;5092792;28;20028;-77
2023/02/02 08:42:53;;;;;;;24.13;5.10;;;;;;;6.60;100.00;102166.50;5089410;28;20039;-77
2023/02/02 08:45:19;;;;;;;21.63;4.63;;;;;;;6.66;100.00;102173.75;5092820;28;20035;-77
2023/02/02 08:47:47;;;;;;;22.77;4.40;;;;;;;6.65;100.00;102185.06;5092775;28;20017;-77
2023/02/02 08:50:12;;;;;;;21.88;4.20;;;;;;;6.61;100.00;102184.94;5092014;28;20032;-77
2023/02/02 08:52:38;;;;;;;24.20;4.75;;;;;;;6.61;100.00;102190.22;5091045;28;20035;-77
2023/02/02 08:55:03;;;;;;;23.27;4.80;;;;;;;6.70;100.00;102207.16;5092115;28;20107;-77
2023/02/02 08:57:31;;;;;;;24.65;4.55;;;;;;;6.69;100.00;102203.66;5092330;28;20032;-77
2023/02/02 08:59:57;;;;;;;24.13;4.28;;;;;;;6.76;100.00;102212.72;5090998;28;20028;-77
2023/02/02 09:02:22;;;;;;;22.50;4.20;;;;;;;6.83;100.00;102217.38;5091952;28;20035;-77
2023/02/02 09:04:47;;;;;;;21.15;4.07;;;;;;;6.94;100.00;102225.69;5086644;28;20093;-76
2023/02/02 09:07:13;;;;;;;22.60;4.50;;;;;;;6.87;100.00;102223.66;5082626;28;20056;-76
2023/02/02 09:09:38;;;;;;;22.13;4.20;;;;;;;6.91;100.00;102223.84;5084393;28;20040;-77
2023/02/02 09:12:04;;;;;;;23.60;4.30;;;;;;;6.87;100.00;102240.31;5081224;28;20115;-77
2023/02/02 09:14:29;;;;;;;24.33;4.43;;;;;;;6.91;100.00;102250.13;5084788;28;20129;-76
2023/02/02 09:16:54;;;;;;;22.58;4.60;;;;;;;6.95;100.00;102246.81;5081736;28;20495;-77
2023/02/02 09:19:20;;;;;;;23.23;4.20;;;;;;;6.95;100.00;102249.44;5083165;28;20111;-76
2023/02/02 09:21:47;;;;;;;21.85;4.35;;;;;;;6.98;100.00;102244.28;5082954;28;20394;-82
2023/02/02 09:24:13;;;;;;;22.17;4.45;;;;;;;7.07;100.00;102250.78;5082221;28;20522;-81
2023/02/02 09:26:39;;;;;;;22.88;4.30;;;;;;;7.21;100.00;102236.47;5083921;28;20024;-81
2023/02/02 09:29:06;;;;;;;22.90;4.20;;;;;;;7.19;100.00;102248.63;5081086;28;20080;-81
2023/02/02 09:31:36;;;;;;;23.23;4.65;;;;;;;7.19;100.00;102251.25;5080981;28;20060;-81
2023/02/02 09:34:07;;;;;;;21.45;4.10;;;;;;;7.25;100.00;102263.78;5081091;28;20445;-82
2023/02/02 09:36:33;;;;;;;22.75;4.10;;;;;;;7.27;100.00;102252.47;5080525;28;20025;-75
2023/02/02 09:38:58;;;;;;;20.25;4.20;;;;;;;7.31;100.00;102261.38;5084351;28;20054;-82
2023/02/02 09:41:36;;;;;;;20.52;4.07;;;;;;;7.29;100.00;102261.31;5081570;28;20032;-81
2023/02/02 09:44:29;;;;;;;19.80;4.20;;;;;;;7.45;100.00;102277.72;5080854;28;20071;-82
2023/02/02 09:46:54;;;;;;;;;;;;;;;7.61;100.00;102271.34;5083920;28;20078;-81
2023/02/02 09:49:42;;;;;;;20.40;4.40;;;;;;;7.63;100.00;102282.81;5082357;28;19912;-81
2023/02/02 09:52:15;;;;;;;21.35;4.13;;;;;;;7.62;100.00;102281.94;5077165;28;20029;-82
2023/02/02 09:54:49;;;;;;;21.58;4.63;;;;;;;7.57;100.00;102285.22;5081743;28;20029;-82
2023/02/02 09:57:21;;;;;;;21.52;4.40;;;;;;;7.61;100.00;102288.03;5082864;28;20059;-75
2023/02/02 09:59:49;;;;;;;22.35;4.45;;;;;;;7.61;100.00;102300.28;5082487;28;20107;-75
2023/02/02 10:02:26;;;;;;;23.08;4.10;;;;;;;7.66;100.00;102302.28;5082955;28;20540;-77
2023/02/02 10:04:59;;;;;;;20.73;4.18;;;;;;;7.60;100.00;102304.66;5083128;28;20107;-75
2023/02/02 10:07:40;;;;;;;21.77;4.20;;;;;;;7.62;100.00;102310.88;5081575;28;20020;-76
2023/02/02 10:10:26;;;;;;;19.70;4.07;;;;;;;7.54;100.00;102308.78;5080686;28;20024;-79
2023/02/02 10:12:57;;;;;;;22.10;4.40;;;;;;;7.52;100.00;102302.56;5089702;28;20034;-80
2023/02/02 10:15:38;;;;;;;21.85;3.95;;;;;;;7.53;100.00;102307.91;5088122;28;20095;-76
2023/02/02 10:18:19;;;;;;;20.55;4.03;;;;;;;7.42;100.00;102283.75;5089083;28;20051;-77
2023/02/02 10:21:09;;;;;;;21.60;4.35;;;;;;;7.46;100.00;102293.56;5091367;28;20024;-76
2023/02/02 10:23:37;;;;;;;23.52;4.15;;;;;;;7.35;100.00;102286.09;5090492;28;20028;-76
2023/02/02 10:26:27;;;;;;;23.15;4.30;;;;;;;7.41;100.00;102296.84;5085675;28;20024;-77
2023/02/02 10:29:12;;;;;;;22.48;4.15;;;;;;;7.45;100.00;102298.78;5081451;28;20074;-76
2023/02/02 10:31:47;;;;;;;23.50;4.50;;;;;;;7.55;100.00;102294.78;5084670;28;20020;-76
2023/02/02 10:34:37;;;;;;;22.08;4.38;;;;;;;7.69;100.00;102290.97;5081548;28;20032;-77
2023/02/02 10:37:22;;;;;;;19.60;3.97;;;;;;;7.72;100.00;102282.28;5081922;28;20061;-79
2023/02/02 10:40:08;;;;;;;20.85;4.18;;;;;;;7.75;100.00;102304.38;5079138;28;20031;-77
2023/02/02 10:43:58;;;;;;;19.27;4.00;;;;;;;7.85;100.00;102290.72;5081657;28;20072;-75
2023/02/02 10:45:59;;;;;;;22.00;3.85;;;;;;;7.85;100.00;102298.63;5073541;28;20032;-76
2023/02/02 10:48:34;;;;;;;22.70;4.80;;;;;;;7.87;100.00;102309.22;5084982;28;20036;-75
2023/02/02 10:51:25;;;;;;;23.77;4.50;;;;;;;8.02;100.00;102299.28;5083723;28;20051;-75
2023/02/02 10:53:56;;;;;;;22.70;3.75;;;;;;;7.92;100.00;102323.47;5086115;28;20443;-75
2023/02/02 10:56:30;;;;;;;22.10;4.25;;;;;;;7.83;100.00;102329.28;5084635;28;20032;-75
2023/02/02 10:59:20;;;;;;;20.90;4.05;;;;;;;7.82;100.00;102329.19;5086696;28;20028;-74
2023/02/02 11:01:47;;;;;;;22.63;4.22;;;;;;;7.79;100.00;102321.16;5085160;28;20037;-76
2023/02/02 11:06:56;;;;;;;19.55;4.15;;;;;;;7.59;100.00;102329.19;5086726;28;20042;-75
2023/02/02 11:09:27;;;;;;;20.95;4.50;;;;;;;7.70;100.00;102328.72;5084299;28;20361;-81
2023/02/02 11:11:59;;;;;;;22.60;4.30;;;;;;;7.72;100.00;102316.50;5091923;28;20029;-77
2023/02/02 11:14:44;;;;;;;23.02;4.50;;;;;;;7.71;100.00;102327.88;5093116;28;20030;-77
2023/02/02 11:17:21;;;;;;;22.35;4.20;;;;;;;7.76;100.00;102331.59;5091426;28;20089;-78
2023/02/02 11:19:48;;;;;;;20.95;3.95;;;;;;;7.82;100.00;102331.81;5092900;28;20390;-79
2023/02/02 11:22:35;;;;;;;21.98;4.05;;;;;;;7.74;100.00;102328.00;5094072;28;20463;-76
2023/02/02 11:25:31;;;;;;;23.10;4.10;;;;;;;7.70;100.00;102328.72;5093457;28;20103;-78
2023/02/02 11:27:56;;;;;;;20.35;3.80;;;;;;;7.59;100.00;102305.50;5093690;28;20576;-78
2023/02/02 11:30:37;;;;;;;21.88;4.10;;;;;;;7.64;100.00;102306.56;5094325;28;20028;-77
2023/02/02 11:33:33;;;;;;;22.02;4.25;;;;;;;7.61;100.00;102321.34;5094374;28;20024;-77
2023/02/02 11:35:59;;;;;;;24.70;4.20;;;;;;;7.58;100.00;102314.22;5092475;28;20391;-75
2023/02/02 11:38:26;;;;;;;20.45;4.05;;;;;;;7.62;100.00;102318.78;5084310;28;20034;-77
2023/02/02 11:40:59;;;;;;;23.50;4.38;;;;;;;7.63;100.00;102317.03;5086663;28;20081;-77